MAPA DE AEROPUERTO

INFORMACIÓN METAR y TAF


Deprecated: The each() function is deprecated. This message will be suppressed on further calls in /home/customer/www/clickair-va.com/public_html/VAM/vam/helpers/get_metar.php on line 20
METAR FOR EKVG
ADDS - METARS form results

(0314 UTC 25 May 2022)
Data provider http://aviationweather.gov/metar/data/
 
METAR text: EKVG 250250Z AUTO 14011KT 9999 -RA OVC010/// 08/06 Q0992 RMK OVC009/// WIND SKEID 15017G27KT
Conditions at: EKVG (SORVAAG/VAGAR , DK) observed 0250 UTC 25 May 2022
Temperature: 8.0°C (46°F)
Dewpoint: 6.0°C (43°F) [RH = 87%]
Pressure (altimeter): 29.29 inches Hg (992.0 mb)
Winds: from the SE (140 degrees) at 13 MPH (11 knots; 5.7 m/s)
Visibility: 6 or more miles (10+ km)
Ceiling: 1000 feet AGL
Clouds: overcast cloud deck at 1000 feet AGL
Weather: -RA  (light rain)

METAR text: EKVG 250220Z AUTO 14013KT 9999 -RA OVC016/// 08/07 Q0993 RMK BKN007/// OVC055/// WIND SKEID 15019G29KT
Conditions at: EKVG (SORVAAG/VAGAR , DK) observed 0220 UTC 25 May 2022
Temperature: 8.0°C (46°F)
Dewpoint: 7.0°C (45°F) [RH = 93%]
Pressure (altimeter): 29.32 inches Hg (993.0 mb)
Winds: from the SE (140 degrees) at 15 MPH (13 knots; 6.7 m/s)
Visibility: 6 or more miles (10+ km)
Ceiling: 1600 feet AGL
Clouds: overcast cloud deck at 1600 feet AGL
Weather: -RA  (light rain)